»·PEaware :: N132EF KPSP-KMYF

N132EF :: KPSP-KMYF

FLIGHT INFORMATION

Flight Status: Arrived
Operator: Privately registered:
United States
More flights under this callsign
Pilot: Ron R. (25532)
Aircraft: BEECH AIRCRAFT DUKE
(BE60)
More flights by this aircraft type
Origin: KPSP Palm Springs Intl
United States
Destination: KMYF Montgomery
United States
More flights between these airports :: More routes between these airports
Route: +CATH1 PSP TRM V514 MZB
File this flight plan on PilotEdge
Remarks:
Altitude:
(Current/Filed)
10,000ft
Speed:
(Current/Filed)
210kts
Departed: 23-Aug-19 08:33 PM
Arrived: 23-Aug-19 09:18 PM
Distance/Time
Traveled:
69nm/0:45
Distance/Time
To Go:
Arrived

Flight Plot

Page will automatically refresh every two minutes.


Map Options




Map Legend


Flown Route
Filed Route
Departure Airport
Arrival Airport
Navaid (VOR, NDB)
Fix

Horizontal Profiles

Position Reports

Time Latitude Longitude Heading Altitude Ground
Speed
23-Aug-19 19:46 33.825239 -116.508836 180 480ft 0kts
23-Aug-19 19:48 33.825239 -116.508836 180 480ft 0kts
23-Aug-19 19:48 33.825239 -116.508836 180 480ft 0kts
23-Aug-19 19:49 33.825239 -116.508836 180 480ft 0kts
23-Aug-19 19:50 33.825239 -116.508836 180 480ft 0kts
23-Aug-19 19:51 33.825239 -116.508836 180 480ft 0kts
23-Aug-19 19:52 33.825239 -116.508836 180 480ft 0kts
23-Aug-19 19:53 33.825239 -116.508836 180 480ft 0kts
23-Aug-19 19:54 33.825239 -116.508836 180 480ft 0kts
23-Aug-19 19:55 33.825238 -116.508836 180 480ft 0kts
23-Aug-19 19:56 33.825236 -116.508836 180 480ft 0kts
23-Aug-19 19:57 33.825234 -116.508836 180 480ft 0kts
23-Aug-19 19:58 33.825231 -116.508836 180 480ft 0kts
23-Aug-19 20:00 33.825226 -116.508836 180 480ft 0kts
23-Aug-19 20:01 33.825224 -116.508836 180 480ft 0kts
23-Aug-19 20:02 33.825221 -116.508836 180 480ft 0kts
23-Aug-19 20:03 33.825218 -116.508836 180 480ft 0kts
23-Aug-19 20:04 33.825216 -116.508836 180 480ft 0kts
23-Aug-19 20:05 33.825213 -116.508836 180 480ft 0kts
23-Aug-19 20:06 33.825211 -116.508836 180 480ft 0kts
23-Aug-19 20:07 33.825208 -116.508836 180 480ft 0kts
23-Aug-19 20:08 33.825206 -116.508836 180 480ft 0kts
23-Aug-19 20:09 33.825203 -116.508836 180 480ft 0kts
23-Aug-19 20:10 33.825201 -116.508836 180 480ft 0kts
23-Aug-19 20:11 33.825198 -116.508836 180 480ft 0kts
23-Aug-19 20:12 33.825195 -116.508836 180 480ft 0kts
23-Aug-19 20:13 33.825193 -116.508836 180 480ft 0kts
23-Aug-19 20:14 33.825190 -116.508836 180 480ft 0kts
23-Aug-19 20:15 33.825188 -116.508836 180 480ft 0kts
23-Aug-19 20:16 33.825185 -116.508836 180 480ft 0kts
23-Aug-19 20:17 33.825369 -116.508836 180 480ft 0kts
23-Aug-19 20:18 33.825988 -116.507266 49 480ft 11kts
23-Aug-19 20:19 33.823381 -116.503802 143 480ft 20kts
23-Aug-19 20:20 33.818729 -116.499692 143 480ft 19kts
23-Aug-19 20:21 33.817188 -116.498133 352 480ft 0kts
23-Aug-19 20:22 33.817191 -116.498134 352 480ft 0kts
23-Aug-19 20:23 33.817194 -116.498135 352 480ft 0kts
23-Aug-19 20:24 33.817197 -116.498135 352 480ft 0kts
23-Aug-19 20:25 33.817202 -116.498136 352 480ft 0kts
23-Aug-19 20:26 33.817211 -116.498137 352 480ft 0kts
23-Aug-19 20:27 33.817214 -116.498138 352 480ft 0kts
23-Aug-19 20:28 33.817217 -116.498138 352 480ft 0kts
23-Aug-19 20:29 33.817612 -116.497852 52 480ft 0kts
23-Aug-19 20:30 33.817613 -116.497851 52 480ft 0kts
23-Aug-19 20:31 33.818361 -116.497578 324 480ft 0kts
23-Aug-19 20:32 33.834752 -116.512240 322 928ft 131kts
23-Aug-19 20:33 33.863824 -116.538798 321 2511ft 139kts
23-Aug-19 20:34 33.897388 -116.566453 329 4132ft 155kts
23-Aug-19 20:35 33.920694 -116.540817 134 5401ft 153kts
23-Aug-19 20:36 33.901512 -116.496670 137 6971ft 152kts
23-Aug-19 20:37 33.871476 -116.462555 145 9014ft 158kts
23-Aug-19 20:38 33.837078 -116.420423 136 10031ft 204kts
23-Aug-19 20:39 33.797163 -116.370062 137 10026ft 198kts
23-Aug-19 20:40 33.759244 -116.322855 137 10022ft 200kts
23-Aug-19 20:41 33.719580 -116.273563 137 10001ft 208kts
23-Aug-19 20:42 33.679074 -116.223281 137 9982ft 209kts
23-Aug-19 20:43 33.636254 -116.177292 163 9974ft 203kts
23-Aug-19 20:44 33.586361 -116.196676 216 10002ft 198kts
23-Aug-19 20:45 33.541784 -116.235992 215 10007ft 199kts
23-Aug-19 20:46 33.496949 -116.275253 215 10016ft 200kts
23-Aug-19 20:47 33.452019 -116.314585 215 10026ft 200kts
23-Aug-19 20:48 33.406936 -116.353999 215 10037ft 200kts
23-Aug-19 20:49 33.361878 -116.393338 215 10049ft 201kts
23-Aug-19 20:50 33.316693 -116.432674 215 10062ft 201kts
23-Aug-19 20:51 33.271414 -116.471877 215 10080ft 201kts
23-Aug-19 20:52 33.226085 -116.511137 215 10130ft 200kts
23-Aug-19 20:53 33.180757 -116.550366 215 10150ft 202kts
23-Aug-19 20:54 33.132723 -116.589454 197 9503ft 219kts
23-Aug-19 20:55 33.074458 -116.601884 191 8495ft 201kts
23-Aug-19 20:56 33.038353 -116.630976 259 8219ft 134kts
23-Aug-19 20:57 33.034570 -116.687750 261 8771ft 209kts
23-Aug-19 20:58 33.018984 -116.751058 217 7807ft 178kts
23-Aug-19 20:59 32.979312 -116.783290 211 6805ft 170kts
23-Aug-19 21:00 32.939792 -116.814284 211 5807ft 169kts
23-Aug-19 21:01 32.900782 -116.844633 212 5183ft 161kts
23-Aug-19 21:02 32.863716 -116.873367 212 5168ft 158kts
23-Aug-19 21:03 32.826985 -116.901802 212 5163ft 157kts
23-Aug-19 21:04 32.790303 -116.930205 212 5161ft 157kts
23-Aug-19 21:05 32.753306 -116.958755 212 5163ft 158kts
23-Aug-19 21:06 32.716394 -116.987214 212 5167ft 158kts
23-Aug-19 21:07 32.704383 -117.027274 314 5186ft 164kts
23-Aug-19 21:08 32.741802 -117.061010 322 4236ft 163kts
23-Aug-19 21:09 32.772121 -117.087311 322 3249ft 108kts
23-Aug-19 21:10 32.801303 -117.113455 315 2960ft 118kts
23-Aug-19 21:11 32.818782 -117.145935 292 2496ft 116kts
23-Aug-19 21:12 32.830813 -117.181362 290 2305ft 118kts
23-Aug-19 21:13 32.842610 -117.163950 112 2256ft 124kts
23-Aug-19 21:14 32.829540 -117.126043 114 2286ft 123kts
23-Aug-19 21:15 32.814080 -117.090977 156 2140ft 115kts
23-Aug-19 21:16 32.806355 -117.115511 299 872ft 110kts
23-Aug-19 21:17 32.817481 -117.143016 294 430ft 40kts
23-Aug-19 21:18 32.816846 -117.145681 204 430ft 8kts
23-Aug-19 21:19 32.814284 -117.145474 121 430ft 11kts
23-Aug-19 21:20 32.814691 -117.141594 114 430ft 12kts
23-Aug-19 21:21 32.813468 -117.140422 206 430ft 0kts
23-Aug-19 21:22 32.813130 -117.140580 357 430ft 4kts
23-Aug-19 21:23 32.813284 -117.140523 25 430ft 0kts
23-Aug-19 21:24 32.813285 -117.140522 25 430ft 0kts
23-Aug-19 21:25 32.813285 -117.140522 25 430ft 0kts
23-Aug-19 21:26 32.813285 -117.140522 25 430ft 0kts
23-Aug-19 21:27 32.813285 -117.140522 25 430ft 0kts
23-Aug-19 21:28 32.813285 -117.140522 25 430ft 0kts

Navigation Log

Ident Type
Flight plan parsing failed, navigation log unavailable